Terminal Aerodrome Forecast
Issued by NWS Knoxville/Tri Cities, TN

Home | Current Version | Previous Version | Text Only | Print | Product List | Glossary On
Versions: 1 2 3 4 5 6 7 8 9 10 11 12 13 14 15 16 17 18 19 20 21 22 23 24 25 26 27 28 29 30 31 32
000
FTUS44 KMRX 042330
TAFTYS
TAF
KTYS 042330Z 0500/0524 22008KT P6SM SCT025 BKN100
      TEMPO 0503/0506 4SM SHRA BR BKN030
     FM050600 22003KT P6SM SCT015 OVC035
     FM051000 22003KT 4SM SHRA BR SCT009 OVC015
     FM051200 22004KT P6SM SCT015 BKN020
     FM051500 25005KT P6SM BKN040=

USA.gov is the U.S. government's official web portal to all federal, state and local government web resources and services.